Latest Coastal Weather Observations for Neptune Island

IDS60701

Issued at 12:11 pm CDT Wednesday 22 February 2017 (issued every 10 minutes, with the page automatically refreshed every 10 minutes)

About coastal observations | Map of coastal stations | Coastal observations for SA | Marine services | Other Formats
Station Details ID: 018115 Name: NEPTUNE ISLAND Lat: -35.34 Lon: 136.12 Height: 32.0 m
Data from the previous 72 hours. | See also: Recent months at Neptune Island
Date/Time
CDT
Temp
°C
Wind Pressure Rain since
9am
mm
Weather Cloud Vis
km
Sea
Height
m
Swell
Dir  Spd
kts
Gust
kts
hPa Trend Height
m
Period
s
Dir
22/12:00pm 19.9 NW 28 33 1008.5 - 0.0 - - - - - - -
22/11:30am 19.7 NW 27 34 1008.5 - 0.0 - - - - - - -
22/11:00am 19.1 NW 29 37 1008.3 - 0.0 - - - - - - -
22/10:30am 18.9 WNW 28 34 1008.3 - 0.0 - - - - - - -
22/10:00am 18.3 WNW 28 34 1007.9 - 0.0 - - - - - - -
22/09:46am 18.6 NW 24 39 1007.4 - 0.0 - - - - - - -
22/09:30am 19.0 WNW 23 29 1007.9 - 0.0 - - - - - - -
22/09:00am 18.9 WNW 23 28 1007.9 - 0.0 - - - - - - -
22/08:30am 19.0 W 26 31 1007.9 - 0.0 - - - - - - -
22/08:00am 19.1 W 29 33 1006.9 - 0.0 - - - - - - -
22/07:30am 19.6 W 29 34 1005.8 - 0.0 - - - - - - -
22/07:00am 20.1 W 27 34 1004.7 - 0.0 - - - - - - -
22/06:53am 20.3 W 28 38 1004.6 - 0.0 - - - - - - -
22/06:44am 21.0 NW 31 38 1004.4 - 0.0 - - - - - - -
22/06:39am 21.6 NW 28 38 1004.0 - 0.0 - - - - - - -
22/06:30am 21.7 NNW 24 32 1003.8 - 0.0 - - - - - - -
22/06:23am 21.8 N 22 27 1003.7 - 0.0 - - - - - - -
22/06:00am 21.9 N 28 32 1002.2 - 0.0 - - - - - - -
22/05:30am 21.7 NNE 28 31 1001.3 - 0.0 - - - - - - -
22/05:00am 21.7 NNE 27 31 1001.5 - 0.0 - - - - - - -
22/04:30am 21.5 NNE 27 31 1001.7 - 0.0 - - - - - - -
22/04:00am 21.4 NNE 26 32 1001.8 - 0.0 - - - - - - -
22/03:30am 21.2 NNE 23 27 1002.5 - 0.0 - - - - - - -
22/03:00am 21.8 NNE 25 29 1002.8 - 0.0 - - - - - - -
22/02:30am 21.8 NNE 26 29 1003.3 - 0.0 - - - - - - -
22/02:00am 21.3 NNE 20 24 1004.4 - 0.0 - - - - - - -
22/01:30am 20.9 N 16 18 1005.5 - 0.0 - - - - - - -
22/01:00am 20.8 NNE 17 19 1006.0 - 0.0 - - - - - - -
22/12:30am 21.2 NNE 19 22 1006.6 - 0.0 - - - - - - -
22/12:00am 21.7 NE 20 26 1006.8 - 0.0 - - - - - - -
 
Date/Time
CDT
Temp
°C
Wind Pressure Rain since
9am
mm
Weather Cloud Vis
km
Sea
Height
m
Swell
Dir  Spd
kts
Gust
kts
hPa Trend Height
m
Period
s
Dir
21/11:30pm 21.8 NE 15 21 1007.1 - 0.0 - - - - - - -
21/11:00pm 21.9 NE 17 23 1007.6 - 0.0 - - - - - - -
21/10:30pm 21.8 NE 17 21 1007.9 - 0.0 - - - - - - -
21/10:00pm 21.2 NE 12 16 1008.7 - 0.0 - - - - - - -
21/09:30pm 20.9 ENE 13 14 1008.7 - 0.0 - - - - - - -
21/09:00pm 20.2 E 10 11 1009.1 - 0.0 - - - - - - -
21/08:30pm 20.0 E 9 11 1009.5 - 0.0 - - - - - - -
21/08:00pm 20.2 E 11 13 1009.4 - 0.0 - - - - - - -
21/07:30pm 20.6 E 13 15 1009.3 - 0.0 - - - - - - -
21/07:00pm 20.7 E 13 16 1009.3 - 0.0 - - - - - - -
21/06:30pm 21.1 E 16 19 1009.4 - 0.0 - - - - - - -
21/06:00pm 21.5 E 15 19 1009.9 - 0.0 - - - - - - -
21/05:30pm 21.4 ENE 15 17 1010.1 - 0.0 - - - - - - -
21/05:00pm 21.4 ENE 13 16 1010.4 - 0.0 - - - - - - -
21/04:30pm 22.0 ENE 14 17 1011.0 - 0.0 - - - - - - -
21/04:00pm 21.9 ENE 16 19 1011.3 - 0.0 - - - - - - -
21/03:30pm 21.7 ENE 17 19 1011.9 - 0.0 - - - - - - -
21/03:00pm 21.6 ENE 19 21 1012.5 - 0.0 - - - - - - -
21/02:30pm 22.9 NE 15 17 1013.2 - 0.0 - - - - - - -
21/02:00pm 21.7 NE 11 16 1013.7 - 0.0 - - - - - - -
21/01:30pm 21.9 NE 11 15 1014.2 - 0.0 - - - - - - -
21/01:00pm 21.3 NE 13 18 1014.4 - 0.0 - - - - - - -
21/12:30pm 21.7 NE 14 21 1014.7 - 0.0 - - - - - - -
21/12:00pm 21.2 NE 12 19 1015.5 - 0.0 - - - - - - -
21/11:30am 21.0 NE 14 19 1015.9 - 0.0 - - - - - - -
21/11:00am 20.8 NE 14 18 1016.2 - 0.0 - - - - - - -
21/10:30am 20.3 NE 14 18 1016.4 - 0.0 - - - - - - -
21/10:00am 19.2 NE 17 19 1016.4 - 0.0 - - - - - - -
21/09:30am 19.1 ENE 15 18 1016.9 - 0.0 - - - - - - -
21/09:00am 18.4 NE 15 19 1017.0 - 0.0 - - - - - - -
21/08:30am 18.0 NE 13 18 1017.2 - 0.0 - - - - - - -
21/08:00am 17.5 NE 15 20 1016.7 - 0.0 - - - - - - -
21/07:30am 17.1 NE 17 21 1016.4 - 0.0 - - - - - - -
21/07:00am 16.7 ENE 19 22 1016.1 - 0.0 - - - - - - -
21/06:30am 16.8 ENE 20 23 1016.1 - 0.0 - - - - - - -
21/06:00am 16.5 ENE 20 25 1015.8 - 0.0 - - - - - - -
21/05:30am 16.6 ENE 20 23 1015.9 - 0.0 - - - - - - -
21/05:00am 16.6 ENE 20 23 1016.1 - 0.0 - - - - - - -
21/04:30am 16.7 ENE 20 23 1016.0 - 0.0 - - - - - - -
21/04:00am 16.7 ENE 20 23 1016.4 - 0.0 - - - - - - -
21/03:30am 16.5 ENE 19 22 1016.6 - 0.0 - - - - - - -
21/03:00am 16.5 ENE 19 22 1016.8 - 0.0 - - - - - - -
21/02:30am 16.3 E 18 22 1017.0 - 0.0 - - - - - - -
21/02:00am 16.3 E 19 22 1017.0 - 0.0 - - - - - - -
21/01:30am 16.2 E 18 22 1017.4 - 0.0 - - - - - - -
21/01:00am 16.2 E 19 23 1017.5 - 0.0 - - - - - - -
21/12:30am 16.4 E 19 23 1017.7 - 0.0 - - - - - - -
21/12:00am 16.4 ESE 18 24 1017.8 - 0.0 - - - - - - -
 
Date/Time
CDT
Temp
°C
Wind Pressure Rain since
9am
mm
Weather Cloud Vis
km
Sea
Height
m
Swell
Dir  Spd
kts
Gust
kts
hPa Trend Height
m
Period
s
Dir
20/11:30pm 16.5 ESE 17 20 1018.3 - 0.0 - - - - - - -
20/11:00pm 16.6 SE 16 18 1018.8 - 0.0 - - - - - - -
20/10:30pm 16.9 SE 14 17 1018.8 - 0.0 - - - - - - -
20/10:00pm 16.9 SSE 14 16 1018.8 - 0.0 - - - - - - -
20/09:30pm 16.8 SSE 13 16 1018.8 - 0.0 - - - - - - -
20/09:00pm 17.1 SSE 12 15 1018.5 - 0.0 - - - - - - -
20/08:30pm 17.1 SSE 10 11 1018.2 - 0.0 - - - - - - -
20/08:00pm 17.5 SSE 10 13 1017.9 - 0.0 - - - - - - -
20/07:30pm 17.9 S 9 11 1017.8 - 0.0 - - - - - - -
20/07:00pm 17.9 S 8 10 1017.6 - 0.0 - - - - - - -
20/06:30pm 18.4 SSW 8 10 1017.6 - 0.0 - - - - - - -
20/06:00pm 18.5 S 7 9 1017.4 - 0.0 - - - - - - -
20/05:30pm 18.3 SSW 7 9 1017.5 - 0.0 - - - - - - -
20/05:00pm 19.3 SSW 7 9 1017.5 - 0.0 - - - - - - -
20/04:30pm 18.9 S 6 8 1017.5 - 0.0 - - - - - - -
20/04:00pm 18.7 S 5 7 1017.6 - 0.0 - - - - - - -
20/03:30pm 19.4 S 6 8 1017.7 - 0.0 - - - - - - -
20/03:00pm 19.2 SSE 7 9 1018.0 - 0.0 - - - - - - -
20/02:30pm 18.5 SE 6 8 1018.3 - 0.0 - - - - - - -
20/02:00pm 19.0 SE 6 8 1018.3 - 0.0 - - - - - - -
20/01:30pm 19.3 SE 6 9 1018.3 - 0.0 - - - - - - -
20/01:00pm 19.1 SSE 7 8 1018.5 - 0.0 - - - - - - -
20/12:30pm 18.2 SSW 5 7 1018.8 - 0.0 - - - - - - -
20/12:00pm 17.7 S 4 7 1019.0 - 0.0 - - - - - - -
20/11:30am 17.8 SSE 6 8 1019.1 - 0.0 - - - - - - -
20/11:00am 17.9 SE 7 9 1019.1 - 0.0 - - - - - - -
20/10:30am 17.2 ESE 8 11 1019.1 - 0.0 - - - - - - -
20/10:00am 16.7 SE 11 12 1019.1 - 0.0 - - - - - - -
20/09:30am 16.0 SSE 11 13 1019.1 - 0.0 - - - - - - -
20/09:00am 15.3 SE 12 15 1018.9 - 0.4 - - - - - - -
20/08:30am 16.0 SE 11 17 1018.5 - 0.4 - - - - - - -
20/08:00am 15.6 SE 9 13 1018.2 - 0.4 - - - - - - -
20/07:30am 15.4 SE 10 13 1017.9 - 0.4 - - - - - - -
20/07:00am 14.9 ESE 13 15 1017.6 - 0.4 - - - - - - -
20/06:30am 15.6 SE 15 19 1017.4 - 0.4 - - - - - - -
20/06:00am 16.1 S 11 15 1017.1 - 0.4 - - - - - - -
20/05:30am 16.1 S 12 14 1016.8 - 0.4 - - - - - - -
20/05:00am 16.3 S 13 16 1016.7 - 0.4 - - - - - - -
20/04:30am 16.1 SSW 10 13 1016.7 - 0.4 - - - - - - -
20/04:00am 15.9 S 11 13 1016.7 - 0.4 - - - - - - -
20/03:30am 16.0 S 12 14 1016.9 - 0.4 - - - - - - -
20/03:00am 16.2 S 14 16 1016.9 - 0.4 - - - - - - -
20/02:30am 15.9 S 11 15 1017.0 - 0.4 - - - - - - -
20/02:00am 15.9 S 11 14 1017.2 - 0.4 - - - - - - -
20/01:30am 16.3 SSW 13 16 1017.4 - 0.4 - - - - - - -
20/01:00am 16.1 SSW 15 18 1017.6 - 0.4 - - - - - - -
20/12:30am 16.4 SSW 15 18 1017.7 - 0.4 - - - - - - -
20/12:00am 16.2 SSW 16 19 1017.8 - 0.4 - - - - - - -
 
Date/Time
CDT
Temp
°C
Wind Pressure Rain since
9am
mm
Weather Cloud Vis
km
Sea
Height
m
Swell
Dir  Spd
kts
Gust
kts
hPa Trend Height
m
Period
s
Dir
19/11:30pm 16.2 S 16 19 1017.9 - 0.4 - - - - - - -
19/11:00pm 16.3 S 15 18 1018.0 - 0.4 - - - - - - -
19/10:30pm 16.3 SW 13 16 1018.0 - 0.4 - - - - - - -
19/10:00pm 16.0 SSW 13 17 1017.9 - 0.4 - - - - - - -
19/09:30pm 15.8 SSW 15 19 1017.8 - 0.4 - - - - - - -
19/09:00pm 15.9 SSW 19 23 1017.6 - 0.4 - - - - - - -
19/08:30pm 16.4 SSW 20 24 1017.5 - 0.4 - - - - - - -
19/08:00pm 15.6 SSW 19 23 1017.5 - 0.4 - - - - - - -
19/07:42pm 15.8 SW 15 25 1017.4 - 0.4 - - - - - - -
19/07:30pm 15.8 SW 18 24 1017.5 - 0.4 - - - - - - -
19/07:00pm 15.9 SW 22 27 1017.2 - 0.2 - - - - - - -
19/06:30pm 15.9 SSW 19 24 1017.1 - 0.2 - - - - - - -
19/06:00pm 15.3 WSW 16 19 1017.1 - 0.2 Recent precip. - - - - - -
19/05:30pm 16.2 SW 19 24 1017.3 - 0.0 - - - - - - -
19/05:00pm 17.2 SW 22 27 1017.0 - 0.0 - - - - - - -
19/04:30pm 17.9 SW 20 24 1017.0 - 0.0 - - - - - - -
19/04:00pm 17.6 SW 18 23 1017.2 - 0.0 - - - - - - -
19/03:30pm 16.3 SSW 20 24 1017.5 - 0.0 - - - - - - -
19/03:00pm 17.3 SSW 20 25 1017.6 - 0.0 - - - - - - -
19/02:30pm 17.8 SW 22 25 1017.7 - 0.0 - - - - - - -
19/02:00pm 16.4 SW 21 25 1017.9 - 0.0 - - - - - - -
19/01:42pm 17.4 SW 18 29 1017.9 - 0.0 - - - - - - -
19/01:30pm 17.2 SW 20 23 1018.0 - 0.0 - - - - - - -
19/01:10pm 16.2 SW 15 26 1018.0 - 0.0 - - - - - - -
19/01:00pm 17.1 SW 14 18 1018.2 - 0.0 - - - - - - -
19/12:30pm 16.4 SW 20 28 1018.1 - 0.0 - - - - - - -

Other Formats:

Comma delimited format used in spreadsheet applications
http://www.bom.gov.au/fwo/IDS60701/IDS60701.94804.axf

JavaScript Object Notation format (JSON) in row-major order
http://www.bom.gov.au/fwo/IDS60701/IDS60701.94804.json